x

Canaveral East - 120nm East Of Cape Canaveral (41010) Wave Buoy

5:50pm - Sat 6th Feb 2016 All times are EST. -5 hours from GMT.

  • Sig Wave height 7.2ft
  • Swell Direction
  • Peak Period 10s
  • Average Period 7s
  • Wind
    18mph, 22mph gusts
  • Sea Temp 75°f
  • Air Temp 69°f
  • Sea Pressure 1017.9mb
  • Canaveral East - 120nm East Of Cape Canaveral
  • Canaveral East - 120nm East Of Cape Canaveral

More Historic Weather Station data

Upgrade to MSW Pro to gain access to the past 30 days of data for over 8000 Wavebouys and Weather Stations around the globe.

Join Pro

Comparision Forecast

View Surf forecast
   
Sat 02/06 5:50pm 7ft 10s 7s 18 22 mph 1017.9mb 75f 69f
5:20pm  -   -   -  18 22 mph 1018.1mb 75f 69f
4:50pm 7ft 11s 7s 16 20 mph 1018.3mb 75f 69f
4:20pm  -   -   -  16 18 mph 1018.7mb 75f 69f
3:50pm 6.5ft 10s 7s 16 18 mph 1018.8mb 75f 69f
3:20pm  -   -   -  13 16 mph 1018.9mb 75f 69f
2:50pm 6.5ft 9s 7s 13 16 mph 1019.3mb 75f 69f
2:20pm  -   -   -  13 18 mph 1019.4mb 74f 69f
1:50pm 6ft 10s 7s 16 18 mph 1019.6mb 74f 69f
1:20pm  -   -   -  13 16 mph 1020.5mb 74f 69f
12:50pm 6ft 10s 7s 13 16 mph 1021.3mb 74f 69f
12:20pm  -   -   -  11 16 mph 1021.9mb 74f 69f
11:50am 6ft 9s 7s 11 18 mph 1022.3mb 74f 69f
11:20am  -   -   -  13 16 mph 1022.5mb 74f 69f
10:50am 6.5ft 8s 7s 13 16 mph 1022.6mb 74f 69f
10:20am  -   -   -  11 13 mph 1023mb 74f 69f
9:50am 6.5ft 10s 7s 11 13 mph 1023.5mb 74f 69f
9:20am  -   -   -  9 13 mph 1023.2mb 74f 68f
8:50am 6.5ft 9s 7s 9 11 mph 1023.2mb 74f 68f
8:20am  -   -   -  11 13 mph 1022.9mb 74f 68f
7:50am 6.5ft 10s 7s 11 13 mph 1022.4mb 74f 68f
7:20am  -   -   -  13 18 mph 1021.6mb 74f 68f
6:50am 6ft 9s 6s 13 18 mph 1021.2mb 74f 67f
6:20am  -   -   -  16 18 mph 1021.1mb 74f 67f
5:50am 6.5ft 10s 6s 16 18 mph 1021mb 73f 67f
5:20am  -   -   -  16 18 mph 1021.3mb 73f 67f
4:50am 7ft 10s 6s 13 18 mph 1021.7mb 73f 67f
4:20am  -   -   -  13 18 mph 1021.5mb 73f 67f
3:50am 7ft 7s 6s 13 20 mph 1021.3mb 73f 67f
3:20am  -   -   -  13 18 mph 1021.4mb 73f 66f
2:50am 6.5ft 8s 6s 18 20 mph 1021.3mb 73f 67f
2:20am  -   -   -  16 20 mph 1021.8mb 73f 66f
1:50am 7ft 7s 6s 16 20 mph 1022.2mb 73f 66f
1:20am  -   -   -  18 22 mph 1022.6mb 73f 66f
12:50am 7ft 8s 6s 18 25 mph 1022.8mb 73f 66f
12:20am  -   -   -  20 25 mph 1023.1mb 73f 65f
Fri 02/05 11:50pm 6.5ft 8s 6s 20 25 mph 1023.1mb 73f 65f
11:20pm  -   -   -  20 25 mph 1023.1mb 73f 65f
10:50pm 7ft 8s 6s 22 25 mph 1023.2mb 73f 65f
10:20pm  -   -   -  22 29 mph 1023.1mb 73f 65f
9:50pm 7.5ft 9s 6s 22 25 mph 1023.2mb 73f 65f
9:20pm  -   -   -  20 25 mph 1023.2mb 73f 65f
8:50pm 7.5ft 9s 6s 20 27 mph 1023.3mb 73f 65f
8:20pm  -   -   -  22 27 mph 1023.1mb 73f 65f
7:50pm 8ft 8s 6s 20 25 mph 1023.1mb 73f 65f
7:20pm  -   -   -  22 29 mph 1022.8mb 73f 65f
6:50pm 8.5ft 9s 6s 22 27 mph 1022.4mb 73f 65f
6:20pm  -   -   -  22 27 mph 1022.1mb 73f 65f
5:50pm 9ft 9s 6s 22 27 mph 1021.7mb 73f 65f
5:20pm  -   -   -  25 31 mph 1021.3mb 73f 65f
4:50pm 8.5ft 9s 6s 25 31 mph 1021mb 73f 65f
4:20pm  -   -   -  27 31 mph 1020.7mb 73f 65f
3:50pm 9ft 9s 6s 25 29 mph 1020.6mb 73f 65f
3:20pm  -   -   -  27 31 mph 1020.1mb 73f 65f
2:50pm 10ft 9s 6s 27 31 mph 1020.1mb 73f 64f
2:20pm  -   -   -  27 34 mph 1020.2mb 73f 64f
1:50pm 9ft 9s 6s 27 31 mph 1020.3mb 73f 64f
1:20pm  -   -   -  27 31 mph 1020.5mb 73f 64f
12:50pm 9.5ft 9s 6s 27 34 mph 1021mb 74f 64f
12:20pm  -   -   -  29 36 mph 1021.4mb 74f 63f
11:50am 9.5ft 8s 6s 27 38 mph 1021.8mb 74f 63f
11:20am  -   -   -  27 36 mph 1022mb 74f 63f
10:50am 9ft 8s 6s 27 34 mph 1022.4mb 74f 62f
10:20am  -   -   -  29 34 mph 1022.3mb 74f 62f
9:50am 9.5ft 8s 6s 27 31 mph 1022.3mb 74f 63f
9:20am  -   -   -  27 38 mph 1022.3mb 74f 63f
8:50am 8.5ft 7s 6s 29 34 mph 1021.6mb 74f 64f
8:20am  -   -   -  29 36 mph 1021mb 74f 64f
7:50am 8ft 7s 5s 29 34 mph 1020.6mb 74f 64f
7:20am  -   -   -  25 31 mph 1020.5mb 74f 65f
6:50am 8ft 7s 5s 27 36 mph 1018.8mb 74f 66f
6:20am  -   -   -  29 34 mph 1018.6mb 74f 66f
5:50am 7ft 6s 5s 27 34 mph 1017.7mb 74f 67f
5:20am  -   -   -  27 34 mph 1018.6mb 74f 66f
4:50am 6.5ft 6s 5s 27 29 mph 1017.6mb 74f 66f
4:20am  -   -   -  29 38 mph 1016.8mb 74f 67f
3:50am 6ft 6s 5s 27 34 mph 1016.8mb 74f 67f
3:20am  -   -   -  27 31 mph 1016.5mb 74f 68f
2:50am 6ft 6s 5s 20 27 mph 1016.4mb 74f 70f
2:20am  -   -   -  11 13 mph 1016.4mb 74f 70f
1:50am 6ft 6s 5s 18 27 mph 1016.5mb 74f 70f
1:20am  -   -   -  27 34 mph 1015mb 74f 75f
12:50am 5.5ft 6s 5s 22 29 mph 1015.7mb 74f 75f
12:20am  -   -   -  25 27 mph 1015.7mb 74f 75f
Thu 02/04 11:50pm 5ft 6s 5s 22 27 mph 1016.1mb 74f 75f
11:20pm  -   -   -  20 25 mph 1016.6mb 74f 75f
10:50pm 5ft 6s 5s 20 27 mph 1016.5mb 74f 75f
10:20pm  -   -   -  22 27 mph 1016.8mb 74f 75f
9:50pm 5ft 6s 5s 20 25 mph 1017mb 74f 75f
9:20pm  -   -   -  20 22 mph 1017mb 74f 75f
8:50pm 5ft 6s 5s 20 22 mph 1017.2mb 74f 75f
8:20pm  -   -   -  18 22 mph 1017.2mb 74f 75f
7:50pm 5ft 6s 5s 18 22 mph 1017.4mb 74f 75f
7:20pm  -   -   -  18 20 mph 1017mb 74f 75f
6:50pm 5ft 6s 5s 18 20 mph 1016.8mb 74f 75f
6:20pm  -   -   -  18 22 mph 1016.5mb 74f 75f
5:50pm 5ft 6s 5s 18 22 mph 1016.5mb 74f 75f
5:20pm  -   -   -  20 25 mph 1016.6mb 74f 75f
4:50pm 5ft 6s 5s 18 20 mph 1016.9mb 74f 75f
4:20pm  -   -   -  18 20 mph 1016.8mb 74f 75f
3:50pm 5ft 6s 5s 18 22 mph 1016.9mb 74f 75f
3:20pm  -   -   -  20 25 mph 1016.7mb 74f 75f
2:50pm 5.5ft 6s 5s 20 25 mph 1016.7mb 74f 75f
2:20pm  -   -   -  22 27 mph 1016.7mb 74f 75f
1:50pm 5ft 6s 5s 25 27 mph 1017mb 74f 75f
1:20pm  -   -   -  22 27 mph 1017.3mb 74f 75f
12:50pm 5ft 6s 5s 25 29 mph 1017.4mb 74f 75f
12:20pm  -   -   -  22 27 mph 1018.1mb 74f 75f
11:50am 5ft 5s 5s 25 29 mph 1018.6mb 74f 75f
11:20am  -   -   -  22 27 mph 1019.2mb 74f 75f
10:50am 5ft 6s 5s 22 27 mph 1019.7mb 74f 75f
10:20am  -   -   -  20 27 mph 1020mb 74f 75f
9:50am 4.5ft 5s 5s 20 25 mph 1020mb 74f 75f
9:20am  -   -   -  20 25 mph 1019.7mb 74f 75f
8:50am 4.5ft 6s 5s 20 22 mph 1019.5mb 74f 75f
8:20am  -   -   -  18 22 mph 1019.3mb 74f 75f
7:50am 4.5ft 6s 5s 20 22 mph 1019.2mb 75f 75f
7:20am  -   -   -  20 22 mph 1019.1mb 75f 75f
6:50am 4.5ft 6s 5s 18 20 mph 1019.1mb 75f 74f
6:20am  -   -   -  18 20 mph 1018.9mb 75f 74f
5:50am 4.5ft 5s 5s 18 20 mph 1018.9mb 75f 74f
5:20am  -   -   -  18 22 mph 1018.9mb 75f 75f
4:50am 4.5ft 6s 5s 18 22 mph 1019mb 75f 74f
4:20am  -   -   -  18 22 mph 1019.1mb 75f 74f
3:50am 5ft 6s 5s 18 22 mph 1019.1mb 75f 74f
3:20am  -   -   -  18 22 mph 1019.2mb 75f 74f
2:50am 4.5ft 5s 5s 20 22 mph 1019.3mb 75f 74f
2:20am  -   -   -  18 22 mph 1019.3mb 75f 74f
1:50am 4.5ft 6s 5s 20 22 mph 1019.2mb 75f 74f
1:20am  -   -   -  20 22 mph 1019.5mb 75f 74f
12:50am 4.5ft 6s 5s 20 22 mph 1019.5mb 75f 74f
12:20am  -   -   -  18 22 mph 1019.8mb 75f 74f
Wed 02/03 11:50pm 4.5ft 5s 5s 18 22 mph 1019.8mb 75f 74f
11:20pm  -   -   -  20 22 mph 1019.8mb 75f 74f
10:50pm 5ft 6s 5s 20 25 mph 1019.9mb 75f 74f
10:20pm  -   -   -  20 22 mph 1020mb 75f 74f
9:50pm 4.5ft 6s 5s 18 22 mph 1020.3mb 75f 74f
9:20pm  -   -   -  20 22 mph 1020.2mb 75f 74f
8:50pm 5ft 6s 5s 18 22 mph 1020.4mb 75f 74f
8:20pm  -   -   -  18 20 mph 1020.5mb 75f 74f
7:50pm 5ft 6s 5s 16 20 mph 1020.7mb 75f 74f
7:20pm  -   -   -  18 20 mph 1020.4mb 75f 74f
6:50pm 4.5ft 6s 5s 18 20 mph 1019.9mb 75f 74f
6:20pm  -   -   -  16 20 mph 1019.9mb 75f 74f
5:50pm 5ft 5s 5s 16 20 mph 1019.6mb 75f 74f
5:20pm  -   -   -  18 22 mph 1019.3mb 75f 74f
4:50pm 5.5ft 5s 5s 20 22 mph 1018.7mb 75f 74f
4:20pm  -   -   -  18 22 mph 1018.5mb 75f 74f
3:50pm 5ft 6s 5s 20 22 mph 1018.4mb 75f 74f
3:20pm  -   -   -  20 25 mph 1018.4mb 75f 74f
2:50pm 5ft 6s 5s 18 22 mph 1018.9mb 75f 74f
2:20pm  -   -   -  18 22 mph 1019.1mb 74f 74f
1:50pm 5ft 6s 5s 18 22 mph 1019.3mb 74f 74f
1:20pm  -   -   -  20 22 mph 1019.6mb 74f 74f
12:50pm 4.5ft 6s 5s 18 20 mph 1020.2mb 74f 74f
12:20pm  -   -   -  18 22 mph 1020.7mb 74f 74f
11:50am 5ft 6s 5s 20 25 mph 1021mb 74f 74f
11:20am  -   -   -  18 22 mph 1021.4mb 74f 74f
10:50am 5ft 6s 5s 20 25 mph 1021.4mb 74f 74f
10:20am  -   -   -  18 20 mph 1022.1mb 74f 74f
9:50am 4.5ft 6s 5s 16 18 mph 1022.3mb 74f 74f
9:20am  -   -   -  18 20 mph 1021.9mb 74f 74f
8:50am 5ft 6s 5s 18 22 mph 1021.3mb 74f 74f
8:20am  -   -   -  20 22 mph 1021.2mb 74f 74f
7:50am 5ft 6s 5s 18 22 mph 1021.2mb 74f 74f
7:20am  -   -   -  18 22 mph 1020.8mb 74f 74f
6:50am 5ft 5s 5s 18 22 mph 1020.5mb 74f 74f
6:20am  -   -   -  20 25 mph 1019.9mb 74f 74f
5:50am 5ft 5s 5s 20 25 mph 1019.5mb 74f 74f
5:20am  -   -   -  20 25 mph 1019.3mb 74f 74f
4:50am 5ft 5s 5s 20 25 mph 1019.3mb 74f 74f
4:20am  -   -   -  20 25 mph 1019.3mb 74f 74f
3:50am 5ft 6s 5s 20 25 mph 1019.3mb 74f 74f
3:20am  -   -   -  20 22 mph 1019.4mb 74f 74f
2:50am 5ft 6s 5s 20 25 mph 1019.5mb 74f 74f
2:20am  -   -   -  20 25 mph 1019.7mb 74f 74f
1:50am 4.5ft 6s 5s 18 22 mph 1020mb 74f 74f
1:20am  -   -   -  18 22 mph 1020.2mb 74f 74f
12:50am 5ft 6s 5s 18 22 mph 1020.2mb 74f 74f
12:20am  -   -   -  18 22 mph 1020.4mb 74f 74f
Tue 02/02 11:50pm 4.5ft 5s 5s 20 22 mph 1020.5mb 74f 74f